sensor_id;sensor_type;location;lat;lon;timestamp;P1;durP1;ratioP1;P2;durP2;ratioP2
64799;SDS011;51233;51.982;4.594;2023-06-14T00:01:29;2.05;;;1.90;;
64799;SDS011;51233;51.982;4.594;2023-06-14T00:04:30;2.20;;;1.58;;
64799;SDS011;51233;51.982;4.594;2023-06-14T00:07:34;1.90;;;1.80;;
64799;SDS011;51233;51.982;4.594;2023-06-14T00:10:35;3.00;;;2.20;;
64799;SDS011;51233;51.982;4.594;2023-06-14T00:13:35;1.52;;;1.42;;
64799;SDS011;51233;51.982;4.594;2023-06-14T00:16:36;1.92;;;1.83;;
64799;SDS011;51233;51.982;4.594;2023-06-14T00:19:38;2.45;;;1.70;;
64799;SDS011;51233;51.982;4.594;2023-06-14T00:22:40;2.30;;;2.00;;
64799;SDS011;51233;51.982;4.594;2023-06-14T00:25:40;1.77;;;1.67;;
64799;SDS011;51233;51.982;4.594;2023-06-14T00:28:40;2.30;;;1.50;;
64799;SDS011;51233;51.982;4.594;2023-06-14T00:31:41;1.80;;;1.70;;
64799;SDS011;51233;51.982;4.594;2023-06-14T00:34:41;3.40;;;1.63;;
64799;SDS011;51233;51.982;4.594;2023-06-14T00:37:41;1.67;;;1.58;;
64799;SDS011;51233;51.982;4.594;2023-06-14T00:40:41;3.47;;;1.80;;
64799;SDS011;51233;51.982;4.594;2023-06-14T00:43:41;1.83;;;1.73;;
64799;SDS011;51233;51.982;4.594;2023-06-14T00:46:47;1.98;;;1.73;;
64799;SDS011;51233;51.982;4.594;2023-06-14T00:49:48;1.70;;;1.60;;
64799;SDS011;51233;51.982;4.594;2023-06-14T00:52:48;2.33;;;1.50;;
64799;SDS011;51233;51.982;4.594;2023-06-14T00:55:52;1.65;;;1.55;;
64799;SDS011;51233;51.982;4.594;2023-06-14T00:58:52;1.85;;;1.75;;
64799;SDS011;51233;51.982;4.594;2023-06-14T01:01:52;1.67;;;1.57;;
64799;SDS011;51233;51.982;4.594;2023-06-14T01:04:59;1.87;;;1.77;;
64799;SDS011;51233;51.982;4.594;2023-06-14T01:08:05;1.85;;;1.73;;
64799;SDS011;51233;51.982;4.594;2023-06-14T01:11:10;2.22;;;1.90;;
64799;SDS011;51233;51.982;4.594;2023-06-14T01:14:12;1.70;;;1.60;;
64799;SDS011;51233;51.982;4.594;2023-06-14T01:17:13;1.67;;;1.58;;
64799;SDS011;51233;51.982;4.594;2023-06-14T01:20:17;1.90;;;1.60;;
64799;SDS011;51233;51.982;4.594;2023-06-14T01:23:17;2.00;;;1.90;;
64799;SDS011;51233;51.982;4.594;2023-06-14T01:26:21;1.60;;;1.50;;
64799;SDS011;51233;51.982;4.594;2023-06-14T01:29:22;1.73;;;1.60;;
64799;SDS011;51233;51.982;4.594;2023-06-14T01:32:23;1.93;;;1.70;;
64799;SDS011;51233;51.982;4.594;2023-06-14T01:35:24;1.70;;;1.60;;
64799;SDS011;51233;51.982;4.594;2023-06-14T01:38:25;1.65;;;1.55;;
64799;SDS011;51233;51.982;4.594;2023-06-14T01:41:26;1.90;;;1.80;;
64799;SDS011;51233;51.982;4.594;2023-06-14T01:44:26;1.67;;;1.57;;
64799;SDS011;51233;51.982;4.594;2023-06-14T01:47:27;2.10;;;2.00;;
64799;SDS011;51233;51.982;4.594;2023-06-14T01:50:28;1.60;;;1.50;;
64799;SDS011;51233;51.982;4.594;2023-06-14T01:53:28;2.00;;;1.77;;
64799;SDS011;51233;51.982;4.594;2023-06-14T01:56:31;1.90;;;1.80;;
64799;SDS011;51233;51.982;4.594;2023-06-14T01:59:32;4.00;;;1.63;;
64799;SDS011;51233;51.982;4.594;2023-06-14T02:02:34;3.05;;;2.10;;
64799;SDS011;51233;51.982;4.594;2023-06-14T02:05:35;3.33;;;1.77;;
64799;SDS011;51233;51.982;4.594;2023-06-14T02:08:39;2.88;;;1.80;;
64799;SDS011;51233;51.982;4.594;2023-06-14T02:11:42;1.73;;;1.63;;
64799;SDS011;51233;51.982;4.594;2023-06-14T02:14:43;1.80;;;1.60;;
64799;SDS011;51233;51.982;4.594;2023-06-14T02:17:45;1.80;;;1.70;;
64799;SDS011;51233;51.982;4.594;2023-06-14T02:20:45;1.85;;;1.70;;
64799;SDS011;51233;51.982;4.594;2023-06-14T02:23:45;1.75;;;1.65;;
64799;SDS011;51233;51.982;4.594;2023-06-14T02:26:46;1.80;;;1.70;;
64799;SDS011;51233;51.982;4.594;2023-06-14T02:29:46;1.60;;;1.50;;
64799;SDS011;51233;51.982;4.594;2023-06-14T02:32:46;2.72;;;1.80;;
64799;SDS011;51233;51.982;4.594;2023-06-14T02:35:48;1.88;;;1.77;;
64799;SDS011;51233;51.982;4.594;2023-06-14T02:38:48;2.05;;;1.70;;
64799;SDS011;51233;51.982;4.594;2023-06-14T02:41:49;5.22;;;1.73;;
64799;SDS011;51233;51.982;4.594;2023-06-14T02:44:50;1.70;;;1.60;;
64799;SDS011;51233;51.982;4.594;2023-06-14T02:47:51;1.80;;;1.70;;
64799;SDS011;51233;51.982;4.594;2023-06-14T02:50:51;3.60;;;1.70;;
64799;SDS011;51233;51.982;4.594;2023-06-14T02:53:52;5.70;;;2.00;;
64799;SDS011;51233;51.982;4.594;2023-06-14T02:56:52;1.67;;;1.57;;
64799;SDS011;51233;51.982;4.594;2023-06-14T02:59:52;2.33;;;1.97;;
64799;SDS011;51233;51.982;4.594;2023-06-14T03:02:52;3.08;;;1.65;;
64799;SDS011;51233;51.982;4.594;2023-06-14T03:05:54;2.22;;;1.65;;
64799;SDS011;51233;51.982;4.594;2023-06-14T03:08:55;2.50;;;2.10;;
64799;SDS011;51233;51.982;4.594;2023-06-14T03:11:59;2.47;;;1.90;;
64799;SDS011;51233;51.982;4.594;2023-06-14T03:15:02;1.20;;;1.20;;
64799;SDS011;51233;51.982;4.594;2023-06-14T03:18:02;1.65;;;1.55;;
64799;SDS011;51233;51.982;4.594;2023-06-14T03:21:03;1.50;;;1.40;;
64799;SDS011;51233;51.982;4.594;2023-06-14T03:24:05;1.58;;;1.48;;
64799;SDS011;51233;51.982;4.594;2023-06-14T03:27:05;1.77;;;1.67;;
64799;SDS011;51233;51.982;4.594;2023-06-14T03:30:05;2.00;;;1.80;;
64799;SDS011;51233;51.982;4.594;2023-06-14T03:33:06;1.63;;;1.53;;
64799;SDS011;51233;51.982;4.594;2023-06-14T03:36:06;2.50;;;1.67;;
64799;SDS011;51233;51.982;4.594;2023-06-14T03:39:06;1.67;;;1.58;;
64799;SDS011;51233;51.982;4.594;2023-06-14T03:42:07;4.20;;;1.50;;
64799;SDS011;51233;51.982;4.594;2023-06-14T03:45:07;1.80;;;1.70;;
64799;SDS011;51233;51.982;4.594;2023-06-14T03:48:08;1.70;;;1.60;;
64799;SDS011;51233;51.982;4.594;2023-06-14T03:51:09;2.30;;;1.60;;
64799;SDS011;51233;51.982;4.594;2023-06-14T03:54:09;2.65;;;2.08;;
64799;SDS011;51233;51.982;4.594;2023-06-14T03:57:10;1.70;;;1.60;;
64799;SDS011;51233;51.982;4.594;2023-06-14T04:00:10;1.70;;;1.60;;
64799;SDS011;51233;51.982;4.594;2023-06-14T04:03:15;2.65;;;1.70;;
64799;SDS011;51233;51.982;4.594;2023-06-14T04:06:19;1.83;;;1.73;;
64799;SDS011;51233;51.982;4.594;2023-06-14T04:09:19;1.97;;;1.87;;
64799;SDS011;51233;51.982;4.594;2023-06-14T04:12:19;1.80;;;1.70;;
64799;SDS011;51233;51.982;4.594;2023-06-14T04:15:20;1.63;;;1.53;;
64799;SDS011;51233;51.982;4.594;2023-06-14T04:18:23;1.50;;;1.40;;
64799;SDS011;51233;51.982;4.594;2023-06-14T04:21:23;1.65;;;1.50;;
64799;SDS011;51233;51.982;4.594;2023-06-14T04:24:23;1.60;;;1.50;;
64799;SDS011;51233;51.982;4.594;2023-06-14T04:30:25;1.70;;;1.60;;
64799;SDS011;51233;51.982;4.594;2023-06-14T04:33:31;2.50;;;1.70;;
64799;SDS011;51233;51.982;4.594;2023-06-14T04:36:32;2.00;;;1.90;;
64799;SDS011;51233;51.982;4.594;2023-06-14T04:39:34;1.35;;;1.35;;
64799;SDS011;51233;51.982;4.594;2023-06-14T04:42:34;1.58;;;1.48;;
64799;SDS011;51233;51.982;4.594;2023-06-14T04:45:36;1.75;;;1.65;;
64799;SDS011;51233;51.982;4.594;2023-06-14T04:48:45;1.55;;;1.45;;
64799;SDS011;51233;51.982;4.594;2023-06-14T04:51:47;3.85;;;2.00;;
64799;SDS011;51233;51.982;4.594;2023-06-14T04:54:50;2.97;;;1.70;;
64799;SDS011;51233;51.982;4.594;2023-06-14T04:57:51;2.53;;;1.97;;
64799;SDS011;51233;51.982;4.594;2023-06-14T05:00:53;2.20;;;1.48;;
64799;SDS011;51233;51.982;4.594;2023-06-14T05:03:53;3.10;;;1.60;;
64799;SDS011;51233;51.982;4.594;2023-06-14T05:06:53;1.60;;;1.50;;
64799;SDS011;51233;51.982;4.594;2023-06-14T05:09:54;1.67;;;1.58;;
64799;SDS011;51233;51.982;4.594;2023-06-14T05:12:54;1.73;;;1.63;;
64799;SDS011;51233;51.982;4.594;2023-06-14T05:15:54;1.85;;;1.60;;
64799;SDS011;51233;51.982;4.594;2023-06-14T05:18:55;1.87;;;1.60;;
64799;SDS011;51233;51.982;4.594;2023-06-14T05:21:55;1.87;;;1.77;;
64799;SDS011;51233;51.982;4.594;2023-06-14T05:24:55;2.57;;;1.70;;
64799;SDS011;51233;51.982;4.594;2023-06-14T05:27:55;3.07;;;1.83;;
64799;SDS011;51233;51.982;4.594;2023-06-14T05:30:56;2.17;;;1.80;;
64799;SDS011;51233;51.982;4.594;2023-06-14T05:33:56;2.40;;;2.20;;
64799;SDS011;51233;51.982;4.594;2023-06-14T05:36:56;3.37;;;1.90;;
64799;SDS011;51233;51.982;4.594;2023-06-14T05:39:57;1.70;;;1.60;;
64799;SDS011;51233;51.982;4.594;2023-06-14T05:42:57;1.97;;;1.60;;
64799;SDS011;51233;51.982;4.594;2023-06-14T05:45:57;6.75;;;2.53;;
64799;SDS011;51233;51.982;4.594;2023-06-14T05:49:00;5.38;;;2.20;;
64799;SDS011;51233;51.982;4.594;2023-06-14T05:52:00;4.20;;;2.10;;
64799;SDS011;51233;51.982;4.594;2023-06-14T05:55:00;6.15;;;2.70;;
64799;SDS011;51233;51.982;4.594;2023-06-14T05:58:01;1.90;;;1.80;;
64799;SDS011;51233;51.982;4.594;2023-06-14T06:01:01;5.07;;;2.00;;
64799;SDS011;51233;51.982;4.594;2023-06-14T06:04:02;2.58;;;2.38;;
64799;SDS011;51233;51.982;4.594;2023-06-14T06:07:02;3.00;;;1.60;;
64799;SDS011;51233;51.982;4.594;2023-06-14T06:10:03;7.75;;;1.98;;
64799;SDS011;51233;51.982;4.594;2023-06-14T06:13:04;7.90;;;2.72;;
64799;SDS011;51233;51.982;4.594;2023-06-14T06:16:04;6.03;;;2.47;;
64799;SDS011;51233;51.982;4.594;2023-06-14T06:19:05;2.83;;;2.10;;
64799;SDS011;51233;51.982;4.594;2023-06-14T06:22:05;3.73;;;1.90;;
64799;SDS011;51233;51.982;4.594;2023-06-14T06:25:06;8.55;;;2.42;;
64799;SDS011;51233;51.982;4.594;2023-06-14T06:28:06;5.33;;;2.40;;
64799;SDS011;51233;51.982;4.594;2023-06-14T06:31:07;2.05;;;1.63;;
64799;SDS011;51233;51.982;4.594;2023-06-14T06:34:07;2.67;;;2.23;;
64799;SDS011;51233;51.982;4.594;2023-06-14T06:37:07;4.27;;;2.27;;
64799;SDS011;51233;51.982;4.594;2023-06-14T06:40:07;4.03;;;2.60;;
64799;SDS011;51233;51.982;4.594;2023-06-14T06:43:08;3.92;;;2.58;;
64799;SDS011;51233;51.982;4.594;2023-06-14T06:46:08;6.67;;;3.30;;
64799;SDS011;51233;51.982;4.594;2023-06-14T06:49:09;8.43;;;3.00;;
64799;SDS011;51233;51.982;4.594;2023-06-14T06:52:09;5.50;;;1.97;;
64799;SDS011;51233;51.982;4.594;2023-06-14T06:55:09;6.80;;;3.40;;
64799;SDS011;51233;51.982;4.594;2023-06-14T07:01:11;5.05;;;2.38;;
64799;SDS011;51233;51.982;4.594;2023-06-14T07:04:11;3.77;;;2.77;;
64799;SDS011;51233;51.982;4.594;2023-06-14T07:07:12;14.77;;;2.83;;
64799;SDS011;51233;51.982;4.594;2023-06-14T07:10:15;9.05;;;3.00;;
64799;SDS011;51233;51.982;4.594;2023-06-14T07:13:15;4.20;;;2.80;;
64799;SDS011;51233;51.982;4.594;2023-06-14T07:16:15;4.70;;;2.47;;
64799;SDS011;51233;51.982;4.594;2023-06-14T07:19:15;8.77;;;2.80;;
64799;SDS011;51233;51.982;4.594;2023-06-14T07:22:19;5.57;;;2.80;;
64799;SDS011;51233;51.982;4.594;2023-06-14T07:25:19;7.72;;;2.83;;
64799;SDS011;51233;51.982;4.594;2023-06-14T07:28:20;5.87;;;3.43;;
64799;SDS011;51233;51.982;4.594;2023-06-14T07:31:20;5.18;;;2.80;;
64799;SDS011;51233;51.982;4.594;2023-06-14T07:34:21;8.30;;;3.10;;
64799;SDS011;51233;51.982;4.594;2023-06-14T07:37:21;4.50;;;2.80;;
64799;SDS011;51233;51.982;4.594;2023-06-14T07:40:21;11.10;;;2.85;;
64799;SDS011;51233;51.982;4.594;2023-06-14T07:43:22;5.13;;;3.05;;
64799;SDS011;51233;51.982;4.594;2023-06-14T07:46:22;7.82;;;2.85;;
64799;SDS011;51233;51.982;4.594;2023-06-14T07:49:22;14.17;;;2.83;;
64799;SDS011;51233;51.982;4.594;2023-06-14T07:52:22;8.48;;;2.70;;
64799;SDS011;51233;51.982;4.594;2023-06-14T07:55:22;9.75;;;2.80;;
64799;SDS011;51233;51.982;4.594;2023-06-14T07:58:23;7.00;;;3.08;;
64799;SDS011;51233;51.982;4.594;2023-06-14T08:01:23;3.97;;;2.92;;
64799;SDS011;51233;51.982;4.594;2023-06-14T08:04:25;6.95;;;2.95;;
64799;SDS011;51233;51.982;4.594;2023-06-14T08:07:25;4.40;;;2.75;;
64799;SDS011;51233;51.982;4.594;2023-06-14T08:10:26;6.13;;;2.90;;
64799;SDS011;51233;51.982;4.594;2023-06-14T08:13:26;9.75;;;3.05;;
64799;SDS011;51233;51.982;4.594;2023-06-14T08:16:27;5.23;;;3.10;;
64799;SDS011;51233;51.982;4.594;2023-06-14T08:19:27;7.93;;;2.65;;
64799;SDS011;51233;51.982;4.594;2023-06-14T08:22:27;5.87;;;2.67;;
64799;SDS011;51233;51.982;4.594;2023-06-14T08:28:28;6.30;;;3.17;;
64799;SDS011;51233;51.982;4.594;2023-06-14T08:31:29;6.18;;;2.95;;
64799;SDS011;51233;51.982;4.594;2023-06-14T08:34:29;5.33;;;2.83;;
64799;SDS011;51233;51.982;4.594;2023-06-14T08:37:29;5.63;;;2.92;;
64799;SDS011;51233;51.982;4.594;2023-06-14T08:40:30;4.83;;;2.70;;
64799;SDS011;51233;51.982;4.594;2023-06-14T08:43:30;4.07;;;2.78;;
64799;SDS011;51233;51.982;4.594;2023-06-14T08:46:31;3.70;;;2.65;;
64799;SDS011;51233;51.982;4.594;2023-06-14T08:49:34;8.80;;;2.67;;
64799;SDS011;51233;51.982;4.594;2023-06-14T08:52:37;3.70;;;2.65;;
64799;SDS011;51233;51.982;4.594;2023-06-14T08:55:40;4.10;;;2.47;;
64799;SDS011;51233;51.982;4.594;2023-06-14T08:58:42;8.55;;;2.72;;
64799;SDS011;51233;51.982;4.594;2023-06-14T09:01:44;7.43;;;2.83;;
64799;SDS011;51233;51.982;4.594;2023-06-14T09:04:45;9.30;;;2.80;;
64799;SDS011;51233;51.982;4.594;2023-06-14T09:07:45;7.07;;;2.20;;
64799;SDS011;51233;51.982;4.594;2023-06-14T09:10:49;5.70;;;2.50;;
64799;SDS011;51233;51.982;4.594;2023-06-14T09:13:49;4.15;;;2.35;;
64799;SDS011;51233;51.982;4.594;2023-06-14T09:17:08;5.65;;;2.80;;
64799;SDS011;51233;51.982;4.594;2023-06-14T09:20:08;5.10;;;2.38;;
64799;SDS011;51233;51.982;4.594;2023-06-14T09:23:20;4.53;;;2.47;;
64799;SDS011;51233;51.982;4.594;2023-06-14T09:26:20;6.00;;;2.50;;
64799;SDS011;51233;51.982;4.594;2023-06-14T09:29:20;7.53;;;2.43;;
64799;SDS011;51233;51.982;4.594;2023-06-14T09:32:21;6.30;;;2.50;;
64799;SDS011;51233;51.982;4.594;2023-06-14T09:35:22;6.90;;;2.53;;
64799;SDS011;51233;51.982;4.594;2023-06-14T09:38:22;5.90;;;2.37;;
64799;SDS011;51233;51.982;4.594;2023-06-14T09:41:41;3.55;;;1.85;;
64799;SDS011;51233;51.982;4.594;2023-06-14T09:44:42;10.35;;;2.28;;
64799;SDS011;51233;51.982;4.594;2023-06-14T09:47:42;6.10;;;2.03;;
64799;SDS011;51233;51.982;4.594;2023-06-14T09:50:46;4.00;;;1.80;;
64799;SDS011;51233;51.982;4.594;2023-06-14T09:53:48;4.32;;;1.70;;
64799;SDS011;51233;51.982;4.594;2023-06-14T09:56:49;6.50;;;1.70;;
64799;SDS011;51233;51.982;4.594;2023-06-14T09:59:52;2.13;;;1.90;;
64799;SDS011;51233;51.982;4.594;2023-06-14T10:02:54;2.72;;;1.92;;
64799;SDS011;51233;51.982;4.594;2023-06-14T10:05:55;2.55;;;2.00;;
64799;SDS011;51233;51.982;4.594;2023-06-14T10:08:58;7.35;;;2.03;;
64799;SDS011;51233;51.982;4.594;2023-06-14T10:12:00;10.07;;;2.00;;
64799;SDS011;51233;51.982;4.594;2023-06-14T10:18:06;8.43;;;1.90;;
64799;SDS011;51233;51.982;4.594;2023-06-14T10:21:18;1.98;;;1.80;;
64799;SDS011;51233;51.982;4.594;2023-06-14T10:24:25;4.40;;;1.90;;
64799;SDS011;51233;51.982;4.594;2023-06-14T10:27:27;2.58;;;1.73;;
64799;SDS011;51233;51.982;4.594;2023-06-14T10:30:28;5.67;;;1.50;;
64799;SDS011;51233;51.982;4.594;2023-06-14T10:33:28;4.28;;;1.95;;
64799;SDS011;51233;51.982;4.594;2023-06-14T10:36:28;2.90;;;1.60;;
64799;SDS011;51233;51.982;4.594;2023-06-14T10:39:31;12.15;;;1.90;;
64799;SDS011;51233;51.982;4.594;2023-06-14T10:42:32;3.00;;;1.73;;
64799;SDS011;51233;51.982;4.594;2023-06-14T10:45:32;4.38;;;1.70;;
64799;SDS011;51233;51.982;4.594;2023-06-14T10:48:32;1.77;;;1.60;;
64799;SDS011;51233;51.982;4.594;2023-06-14T10:54:33;3.42;;;1.60;;
64799;SDS011;51233;51.982;4.594;2023-06-14T10:57:34;2.20;;;1.50;;
64799;SDS011;51233;51.982;4.594;2023-06-14T11:03:56;3.10;;;1.70;;
64799;SDS011;51233;51.982;4.594;2023-06-14T11:07:02;4.40;;;1.70;;
64799;SDS011;51233;51.982;4.594;2023-06-14T11:13:26;1.20;;;1.10;;
64799;SDS011;51233;51.982;4.594;2023-06-14T11:16:29;2.13;;;1.30;;
64799;SDS011;51233;51.982;4.594;2023-06-14T11:19:29;2.07;;;1.70;;
64799;SDS011;51233;51.982;4.594;2023-06-14T11:22:30;1.70;;;1.60;;
64799;SDS011;51233;51.982;4.594;2023-06-14T11:25:41;1.60;;;1.50;;
64799;SDS011;51233;51.982;4.594;2023-06-14T11:28:41;1.63;;;1.52;;
64799;SDS011;51233;51.982;4.594;2023-06-14T11:31:44;6.40;;;1.60;;
64799;SDS011;51233;51.982;4.594;2023-06-14T11:34:47;4.00;;;1.70;;
64799;SDS011;51233;51.982;4.594;2023-06-14T11:37:48;2.80;;;1.73;;
64799;SDS011;51233;51.982;4.594;2023-06-14T11:40:48;5.40;;;1.38;;
64799;SDS011;51233;51.982;4.594;2023-06-14T11:43:52;2.10;;;1.60;;
64799;SDS011;51233;51.982;4.594;2023-06-14T11:46:52;3.58;;;1.50;;
64799;SDS011;51233;51.982;4.594;2023-06-14T11:49:52;1.60;;;1.50;;
64799;SDS011;51233;51.982;4.594;2023-06-14T11:52:56;4.30;;;1.50;;
64799;SDS011;51233;51.982;4.594;2023-06-14T11:55:57;4.63;;;1.33;;
64799;SDS011;51233;51.982;4.594;2023-06-14T11:58:57;2.85;;;1.38;;
64799;SDS011;51233;51.982;4.594;2023-06-14T12:01:57;5.85;;;1.70;;
64799;SDS011;51233;51.982;4.594;2023-06-14T12:05:03;1.60;;;1.47;;
64799;SDS011;51233;51.982;4.594;2023-06-14T12:08:03;1.80;;;1.70;;
64799;SDS011;51233;51.982;4.594;2023-06-14T12:11:13;2.08;;;1.38;;
64799;SDS011;51233;51.982;4.594;2023-06-14T12:14:15;3.28;;;1.42;;
64799;SDS011;51233;51.982;4.594;2023-06-14T12:17:19;2.42;;;1.50;;
64799;SDS011;51233;51.982;4.594;2023-06-14T12:20:19;1.40;;;1.30;;
64799;SDS011;51233;51.982;4.594;2023-06-14T12:23:21;1.52;;;1.42;;
64799;SDS011;51233;51.982;4.594;2023-06-14T12:26:22;2.30;;;1.50;;
64799;SDS011;51233;51.982;4.594;2023-06-14T12:29:24;2.85;;;1.40;;
64799;SDS011;51233;51.982;4.594;2023-06-14T12:32:24;2.77;;;1.73;;
64799;SDS011;51233;51.982;4.594;2023-06-14T12:35:25;3.67;;;1.40;;
64799;SDS011;51233;51.982;4.594;2023-06-14T12:38:25;3.73;;;1.73;;
64799;SDS011;51233;51.982;4.594;2023-06-14T12:41:25;1.50;;;1.40;;
64799;SDS011;51233;51.982;4.594;2023-06-14T12:44:26;3.95;;;1.50;;
64799;SDS011;51233;51.982;4.594;2023-06-14T12:47:26;4.17;;;1.43;;
64799;SDS011;51233;51.982;4.594;2023-06-14T12:50:29;3.33;;;1.70;;
64799;SDS011;51233;51.982;4.594;2023-06-14T12:53:30;1.60;;;1.50;;
64799;SDS011;51233;51.982;4.594;2023-06-14T12:56:30;2.88;;;1.65;;
64799;SDS011;51233;51.982;4.594;2023-06-14T12:59:30;7.68;;;1.38;;
64799;SDS011;51233;51.982;4.594;2023-06-14T13:02:33;1.85;;;1.63;;
64799;SDS011;51233;51.982;4.594;2023-06-14T13:05:33;4.00;;;1.80;;
64799;SDS011;51233;51.982;4.594;2023-06-14T13:08:33;5.17;;;1.70;;
64799;SDS011;51233;51.982;4.594;2023-06-14T13:11:33;2.10;;;1.40;;
64799;SDS011;51233;51.982;4.594;2023-06-14T13:17:34;2.60;;;1.50;;
64799;SDS011;51233;51.982;4.594;2023-06-14T13:20:38;7.72;;;1.70;;
64799;SDS011;51233;51.982;4.594;2023-06-14T13:23:38;5.55;;;1.88;;
64799;SDS011;51233;51.982;4.594;2023-06-14T13:26:39;1.52;;;1.42;;
64799;SDS011;51233;51.982;4.594;2023-06-14T13:29:39;2.13;;;1.60;;
64799;SDS011;51233;51.982;4.594;2023-06-14T13:32:39;1.75;;;1.63;;
64799;SDS011;51233;51.982;4.594;2023-06-14T13:38:40;2.80;;;1.42;;
64799;SDS011;51233;51.982;4.594;2023-06-14T13:44:40;1.55;;;1.45;;
64799;SDS011;51233;51.982;4.594;2023-06-14T13:47:43;5.88;;;1.42;;
64799;SDS011;51233;51.982;4.594;2023-06-14T13:50:43;2.90;;;1.30;;
64799;SDS011;51233;51.982;4.594;2023-06-14T13:56:47;4.55;;;1.60;;
64799;SDS011;51233;51.982;4.594;2023-06-14T13:59:47;3.60;;;1.45;;
64799;SDS011;51233;51.982;4.594;2023-06-14T14:02:48;1.60;;;1.50;;
64799;SDS011;51233;51.982;4.594;2023-06-14T14:05:50;2.08;;;1.33;;
64799;SDS011;51233;51.982;4.594;2023-06-14T14:08:50;1.90;;;1.42;;
64799;SDS011;51233;51.982;4.594;2023-06-14T14:14:50;4.88;;;1.30;;
64799;SDS011;51233;51.982;4.594;2023-06-14T14:20:51;7.22;;;1.77;;
64799;SDS011;51233;51.982;4.594;2023-06-14T14:23:51;3.70;;;1.58;;
64799;SDS011;51233;51.982;4.594;2023-06-14T14:29:53;2.67;;;1.33;;
64799;SDS011;51233;51.982;4.594;2023-06-14T14:35:53;4.18;;;1.58;;
64799;SDS011;51233;51.982;4.594;2023-06-14T14:41:57;2.47;;;1.37;;
64799;SDS011;51233;51.982;4.594;2023-06-14T14:44:57;3.70;;;1.67;;
64799;SDS011;51233;51.982;4.594;2023-06-14T14:47:57;6.28;;;1.50;;
64799;SDS011;51233;51.982;4.594;2023-06-14T14:50:57;2.08;;;1.50;;
64799;SDS011;51233;51.982;4.594;2023-06-14T14:57:07;2.55;;;1.42;;
64799;SDS011;51233;51.982;4.594;2023-06-14T15:00:07;5.25;;;1.70;;
64799;SDS011;51233;51.982;4.594;2023-06-14T15:03:08;2.05;;;1.52;;
64799;SDS011;51233;51.982;4.594;2023-06-14T15:06:08;1.58;;;1.48;;
64799;SDS011;51233;51.982;4.594;2023-06-14T15:12:08;6.03;;;1.52;;
64799;SDS011;51233;51.982;4.594;2023-06-14T15:15:10;4.68;;;1.48;;
64799;SDS011;51233;51.982;4.594;2023-06-14T15:18:10;2.65;;;1.50;;
64799;SDS011;51233;51.982;4.594;2023-06-14T15:21:11;4.15;;;1.13;;
64799;SDS011;51233;51.982;4.594;2023-06-14T15:24:11;1.75;;;1.38;;
64799;SDS011;51233;51.982;4.594;2023-06-14T15:27:12;5.35;;;1.50;;
64799;SDS011;51233;51.982;4.594;2023-06-14T15:30:12;2.90;;;1.45;;
64799;SDS011;51233;51.982;4.594;2023-06-14T15:33:12;4.13;;;1.63;;
64799;SDS011;51233;51.982;4.594;2023-06-14T15:39:13;2.40;;;1.30;;
64799;SDS011;51233;51.982;4.594;2023-06-14T15:42:13;1.60;;;1.50;;
64799;SDS011;51233;51.982;4.594;2023-06-14T15:45:16;3.88;;;1.50;;
64799;SDS011;51233;51.982;4.594;2023-06-14T15:48:16;4.20;;;1.50;;
64799;SDS011;51233;51.982;4.594;2023-06-14T15:51:16;3.87;;;1.50;;
64799;SDS011;51233;51.982;4.594;2023-06-14T15:54:17;3.45;;;1.60;;
64799;SDS011;51233;51.982;4.594;2023-06-14T15:57:17;1.38;;;1.27;;
64799;SDS011;51233;51.982;4.594;2023-06-14T16:00:17;1.50;;;1.40;;
64799;SDS011;51233;51.982;4.594;2023-06-14T16:03:18;3.80;;;1.58;;
64799;SDS011;51233;51.982;4.594;2023-06-14T16:06:18;2.08;;;1.48;;
64799;SDS011;51233;51.982;4.594;2023-06-14T16:09:18;5.57;;;1.67;;
64799;SDS011;51233;51.982;4.594;2023-06-14T16:12:19;59.00;;;2.93;;
64799;SDS011;51233;51.982;4.594;2023-06-14T16:15:21;2.25;;;1.65;;
64799;SDS011;51233;51.982;4.594;2023-06-14T16:18:21;3.30;;;1.67;;
64799;SDS011;51233;51.982;4.594;2023-06-14T16:21:21;5.22;;;1.60;;
64799;SDS011;51233;51.982;4.594;2023-06-14T16:24:21;2.95;;;1.60;;
64799;SDS011;51233;51.982;4.594;2023-06-14T16:27:21;3.23;;;1.70;;
64799;SDS011;51233;51.982;4.594;2023-06-14T16:30:22;2.97;;;1.50;;
64799;SDS011;51233;51.982;4.594;2023-06-14T16:33:22;2.97;;;1.57;;
64799;SDS011;51233;51.982;4.594;2023-06-14T16:36:22;2.22;;;1.52;;
64799;SDS011;51233;51.982;4.594;2023-06-14T16:39:23;2.53;;;1.20;;
64799;SDS011;51233;51.982;4.594;2023-06-14T16:42:23;3.38;;;1.48;;
64799;SDS011;51233;51.982;4.594;2023-06-14T16:45:23;2.08;;;1.50;;
64799;SDS011;51233;51.982;4.594;2023-06-14T16:48:23;4.97;;;1.50;;
64799;SDS011;51233;51.982;4.594;2023-06-14T16:51:23;1.95;;;1.40;;
64799;SDS011;51233;51.982;4.594;2023-06-14T16:54:24;2.70;;;1.60;;
64799;SDS011;51233;51.982;4.594;2023-06-14T16:57:24;1.50;;;1.40;;
64799;SDS011;51233;51.982;4.594;2023-06-14T17:00:24;3.70;;;1.30;;
64799;SDS011;51233;51.982;4.594;2023-06-14T17:03:25;7.05;;;1.40;;
64799;SDS011;51233;51.982;4.594;2023-06-14T17:09:26;4.60;;;1.63;;
64799;SDS011;51233;51.982;4.594;2023-06-14T17:12:26;4.50;;;1.80;;
64799;SDS011;51233;51.982;4.594;2023-06-14T17:15:26;1.77;;;1.40;;
64799;SDS011;51233;51.982;4.594;2023-06-14T17:18:27;6.93;;;2.33;;
64799;SDS011;51233;51.982;4.594;2023-06-14T17:21:27;2.20;;;1.77;;
64799;SDS011;51233;51.982;4.594;2023-06-14T17:24:27;4.38;;;1.58;;
64799;SDS011;51233;51.982;4.594;2023-06-14T17:27:30;2.72;;;1.60;;
64799;SDS011;51233;51.982;4.594;2023-06-14T17:30:30;3.45;;;1.10;;
64799;SDS011;51233;51.982;4.594;2023-06-14T17:33:33;1.95;;;1.30;;
64799;SDS011;51233;51.982;4.594;2023-06-14T17:36:34;3.65;;;1.50;;
64799;SDS011;51233;51.982;4.594;2023-06-14T17:39:34;1.60;;;1.10;;
64799;SDS011;51233;51.982;4.594;2023-06-14T17:42:36;2.50;;;1.30;;
64799;SDS011;51233;51.982;4.594;2023-06-14T17:45:39;2.50;;;1.40;;
64799;SDS011;51233;51.982;4.594;2023-06-14T17:48:39;11.13;;;1.30;;
64799;SDS011;51233;51.982;4.594;2023-06-14T17:51:39;5.70;;;1.33;;
64799;SDS011;51233;51.982;4.594;2023-06-14T17:54:39;1.60;;;1.30;;
64799;SDS011;51233;51.982;4.594;2023-06-14T17:57:40;5.82;;;1.30;;
64799;SDS011;51233;51.982;4.594;2023-06-14T18:00:40;21.70;;;1.60;;
64799;SDS011;51233;51.982;4.594;2023-06-14T18:03:41;2.83;;;1.10;;
64799;SDS011;51233;51.982;4.594;2023-06-14T18:06:41;3.20;;;1.10;;
64799;SDS011;51233;51.982;4.594;2023-06-14T18:09:41;4.05;;;1.30;;
64799;SDS011;51233;51.982;4.594;2023-06-14T18:12:41;2.83;;;1.30;;
64799;SDS011;51233;51.982;4.594;2023-06-14T18:15:44;5.00;;;1.00;;
64799;SDS011;51233;51.982;4.594;2023-06-14T18:18:44;2.53;;;1.20;;
64799;SDS011;51233;51.982;4.594;2023-06-14T18:21:46;4.68;;;1.48;;
64799;SDS011;51233;51.982;4.594;2023-06-14T18:24:47;5.25;;;1.20;;
64799;SDS011;51233;51.982;4.594;2023-06-14T18:27:47;1.33;;;1.23;;
64799;SDS011;51233;51.982;4.594;2023-06-14T18:30:47;6.50;;;1.30;;
64799;SDS011;51233;51.982;4.594;2023-06-14T18:33:47;3.80;;;1.13;;
64799;SDS011;51233;51.982;4.594;2023-06-14T18:36:47;3.10;;;1.20;;
64799;SDS011;51233;51.982;4.594;2023-06-14T18:39:48;4.35;;;1.10;;
64799;SDS011;51233;51.982;4.594;2023-06-14T18:42:48;1.73;;;1.20;;
64799;SDS011;51233;51.982;4.594;2023-06-14T18:45:48;1.83;;;1.10;;
64799;SDS011;51233;51.982;4.594;2023-06-14T18:48:48;5.40;;;1.50;;
64799;SDS011;51233;51.982;4.594;2023-06-14T18:51:51;2.00;;;1.35;;
64799;SDS011;51233;51.982;4.594;2023-06-14T18:54:51;2.43;;;1.30;;
64799;SDS011;51233;51.982;4.594;2023-06-14T18:57:51;4.38;;;1.30;;
64799;SDS011;51233;51.982;4.594;2023-06-14T19:00:51;2.30;;;1.40;;
64799;SDS011;51233;51.982;4.594;2023-06-14T19:03:52;2.67;;;1.30;;
64799;SDS011;51233;51.982;4.594;2023-06-14T19:06:52;2.60;;;1.30;;
64799;SDS011;51233;51.982;4.594;2023-06-14T19:09:52;1.40;;;1.30;;
64799;SDS011;51233;51.982;4.594;2023-06-14T19:12:52;4.40;;;1.30;;